Terminal Aerodrome Forecast
Issued by NWS Charleston, SC

Home | Current Version | Previous Version | Text Only | Print | Product List | Glossary On
Versions: 1 2 3 4 5 6 7 8 9 10 11 12 13 14 15
000
FTUS42 KCHS 251126
TAFSAV
TAF
KSAV 251126Z 2512/2612 22004KT P6SM FEW080 SCT250
     FM251730 16008KT P6SM SCT050
     FM260100 VRB02KT P6SM FEW050=

USA.gov is the U.S. government's official web portal to all federal, state and local government web resources and services.